createdAt,value
2019-04-21T00:00:21.073Z,102461.73
2019-04-21T00:00:54.231Z,102459.02
2019-04-21T00:01:18.402Z,102459.02
2019-04-21T00:01:48.772Z,102459.02
2019-04-21T00:02:14.587Z,102460.86
2019-04-21T00:02:39.724Z,102461.33
2019-04-21T00:03:12.935Z,102459.57
2019-04-21T00:03:35.597Z,102460.93
2019-04-21T00:04:07.409Z,102454.55
2019-04-21T00:04:33.176Z,102458.62
2019-04-21T00:05:09.324Z,102458.21
2019-04-21T00:05:33.465Z,102460.45
2019-04-21T00:06:03.252Z,102456.86
2019-04-21T00:06:32.183Z,102453.66
2019-04-21T00:06:56.655Z,102455.50
2019-04-21T00:07:19.264Z,102455.50
2019-04-21T00:07:45.086Z,102457.73
2019-04-21T00:08:19.194Z,102458.21
2019-04-21T00:08:41.458Z,102453.30
2019-04-21T00:09:11.178Z,102456.86
2019-04-21T00:09:33.669Z,102452.41
2019-04-21T00:09:58.405Z,102453.77
2019-04-21T00:10:28.413Z,102453.77
2019-04-21T00:11:01.117Z,102455.12
2019-04-21T00:11:25.057Z,102451.94
2019-04-21T00:11:47.044Z,102449.70
2019-04-21T00:12:15.064Z,102450.17
2019-04-21T00:12:35.874Z,102452.41
2019-04-21T00:13:04.437Z,102451.05
2019-04-21T00:13:28.275Z,102449.84
2019-04-21T00:13:52.212Z,102443.86
2019-04-21T00:14:18.381Z,102447.53
2019-04-21T00:14:43.404Z,102446.58
2019-04-21T00:15:10.608Z,102448.01
2019-04-21T00:15:33.223Z,102442.10
2019-04-21T00:15:55.028Z,102443.94
2019-04-21T00:16:24.599Z,102445.77
2019-04-21T00:16:52.905Z,102443.46
2019-04-21T00:17:15.642Z,102446.28
2019-04-21T00:17:36.935Z,102444.41
2019-04-21T00:18:05.932Z,102440.34
2019-04-21T00:18:41.800Z,102441.70
2019-04-21T00:19:12.977Z,102440.34
2019-04-21T00:19:36.654Z,102443.13
2019-04-21T00:20:13.797Z,102448.56
2019-04-21T00:20:39.237Z,102441.30
2019-04-21T00:20:58.616Z,102438.66
2019-04-21T00:21:29.247Z,102440.08
2019-04-21T00:21:55.466Z,102441.44
2019-04-21T00:22:26.861Z,102432.45
2019-04-21T00:22:52.069Z,102437.00
2019-04-21T00:23:21.443Z,102441.07
2019-04-21T00:23:54.114Z,102438.36
2019-04-21T00:24:23.947Z,102441.07
2019-04-21T00:24:50.161Z,102440.19
2019-04-21T00:25:19.111Z,102438.83
2019-04-21T00:25:45.277Z,102434.77
2019-04-21T00:26:07.521Z,102437.07
2019-04-21T00:26:42.520Z,102437.07
2019-04-21T00:27:05.545Z,102438.83
2019-04-21T00:27:28.022Z,102438.91
2019-04-21T00:27:58.876Z,102438.50
2019-04-21T00:28:30.295Z,102435.78
2019-04-21T00:28:59.576Z,102432.70
2019-04-21T00:29:27.562Z,102438.02
2019-04-21T00:29:45.628Z,102438.02
2019-04-21T00:30:19.901Z,102433.08
2019-04-21T00:30:39.869Z,102437.66
2019-04-21T00:31:06.590Z,102438.02
2019-04-21T00:31:28.538Z,102435.78
2019-04-21T00:31:56.346Z,102434.94
2019-04-21T00:32:17.854Z,102433.08
2019-04-21T00:32:46.054Z,102432.70
2019-04-21T00:33:06.781Z,102433.17
2019-04-21T00:33:28.841Z,102430.47
2019-04-21T00:33:51.977Z,102428.62
2019-04-21T00:34:17.706Z,102429.98
2019-04-21T00:34:51.197Z,102429.58
2019-04-21T00:35:14.028Z,102436.38
2019-04-21T00:35:46.498Z,102434.13
2019-04-21T00:36:10.187Z,102428.23
2019-04-21T00:36:40.659Z,102435.48
2019-04-21T00:37:05.847Z,102431.41
2019-04-21T00:37:42.522Z,102435.97
2019-04-21T00:38:09.437Z,102434.20
2019-04-21T00:38:43.689Z,102435.97
2019-04-21T00:39:15.765Z,102431.89
2019-04-21T00:39:37.075Z,102438.68
2019-04-21T00:40:00.224Z,102430.94
2019-04-21T00:40:24.013Z,102433.17
2019-04-21T00:40:56.705Z,102434.13
2019-04-21T00:41:19.355Z,102435.97
2019-04-21T00:41:43.541Z,102430.94
2019-04-21T00:42:09.883Z,102432.38
2019-04-21T00:42:34.419Z,102431.89
2019-04-21T00:43:00.898Z,102430.53
2019-04-21T00:43:25.265Z,102431.82
2019-04-21T00:43:52.164Z,102430.94
2019-04-21T00:44:11.511Z,102430.53
2019-04-21T00:44:39.982Z,102432.84
2019-04-21T00:45:09.810Z,102433.73
2019-04-21T00:45:37.607Z,102434.20
2019-04-21T00:45:57.564Z,102427.82
2019-04-21T00:46:31.158Z,102430.13
2019-04-21T00:46:55.787Z,102429.77
2019-04-21T00:47:31.726Z,102430.13
2019-04-21T00:47:53.129Z,102432.84
2019-04-21T00:48:25.787Z,102427.93
2019-04-21T00:48:47.624Z,102428.41
2019-04-21T00:49:08.543Z,102425.69
2019-04-21T00:49:34.368Z,102426.64
2019-04-21T00:50:08.123Z,102429.36
2019-04-21T00:50:40.738Z,102428.00
2019-04-21T00:51:23.078Z,102424.88
2019-04-21T00:51:43.633Z,102428.00
2019-04-21T00:52:02.215Z,102425.87
2019-04-21T00:52:39.915Z,102424.88
2019-04-21T00:53:33.820Z,102424.88
2019-04-21T00:53:58.535Z,102425.87
2019-04-21T00:54:37.381Z,102420.98
2019-04-21T00:54:59.751Z,102412.45
2019-04-21T00:55:59.020Z,102415.73
2019-04-21T00:56:21.788Z,102411.27
2019-04-21T00:56:50.026Z,102419.00
2019-04-21T00:57:17.499Z,102412.69
2019-04-21T00:57:45.326Z,102413.20
2019-04-21T00:58:11.538Z,102414.16
2019-04-21T00:58:33.160Z,102407.84
2019-04-21T00:59:01.124Z,102413.75
2019-04-21T00:59:25.600Z,102403.84
2019-04-21T00:59:57.150Z,102405.20
2019-04-21T01:00:18.744Z,102404.66
2019-04-21T01:00:46.396Z,102408.33
2019-04-21T01:01:09.050Z,102402.89
2019-04-21T01:01:38.028Z,102400.66
2019-04-21T01:01:59.705Z,102398.83
2019-04-21T01:02:36.380Z,102402.89
2019-04-21T01:03:14.673Z,102400.18
2019-04-21T01:03:26.758Z,102398.42
2019-04-21T01:03:53.348Z,102401.54
2019-04-21T01:04:15.371Z,102398.83
2019-04-21T01:04:44.776Z,102400.59
2019-04-21T01:05:11.141Z,102396.11
2019-04-21T01:05:41.109Z,102392.99
2019-04-21T01:06:03.316Z,102391.27
2019-04-21T01:06:34.107Z,102395.70
2019-04-21T01:07:00.677Z,102390.28
2019-04-21T01:07:19.407Z,102393.40
2019-04-21T01:07:45.465Z,102393.88
2019-04-21T01:08:13.162Z,102393.47
2019-04-21T01:08:41.356Z,102391.16
2019-04-21T01:09:06.360Z,102401.06
2019-04-21T01:09:27.643Z,102393.40
2019-04-21T01:09:54.060Z,102396.11
2019-04-21T01:10:23.306Z,102394.75
2019-04-21T01:10:49.273Z,102394.75
2019-04-21T01:11:17.958Z,102399.23
2019-04-21T01:11:51.463Z,102396.70
2019-04-21T01:12:17.143Z,102397.06
2019-04-21T01:12:41.763Z,102396.59
2019-04-21T01:13:13.985Z,102392.52
2019-04-21T01:13:39.518Z,102393.47
2019-04-21T01:14:00.652Z,102395.70
2019-04-21T01:14:29.747Z,102394.35
2019-04-21T01:14:55.346Z,102392.22
2019-04-21T01:15:26.425Z,102394.45
2019-04-21T01:15:51.480Z,102394.53
2019-04-21T01:16:18.742Z,102394.94
2019-04-21T01:16:39.821Z,102395.34
2019-04-21T01:17:07.136Z,102388.55
2019-04-21T01:17:27.742Z,102387.67
2019-04-21T01:17:56.066Z,102389.03
2019-04-21T01:18:20.649Z,102386.31
2019-04-21T01:18:50.523Z,102393.09
2019-04-21T01:19:14.444Z,102388.63
2019-04-21T01:19:37.090Z,102392.22
2019-04-21T01:20:01.205Z,102389.98
2019-04-21T01:20:17.747Z,102387.67
2019-04-21T01:20:39.732Z,102392.22
2019-04-21T01:21:13.618Z,102385.91
2019-04-21T01:21:30.770Z,102386.80
2019-04-21T01:21:56.203Z,102386.39
2019-04-21T01:22:20.880Z,102381.37
2019-04-21T01:22:45.600Z,102385.44
2019-04-21T01:23:10.568Z,102382.31
2019-04-21T01:23:35.849Z,102379.61
2019-04-21T01:24:07.737Z,102385.03
2019-04-21T01:24:33.169Z,102382.31
2019-04-21T01:25:00.067Z,102383.20
2019-04-21T01:25:28.105Z,102382.31
2019-04-21T01:26:02.649Z,102382.31
2019-04-21T01:26:25.354Z,102379.61
2019-04-21T01:26:48.257Z,102384.16
2019-04-21T01:27:16.240Z,102379.20
2019-04-21T01:27:52.094Z,102376.02
2019-04-21T01:28:14.851Z,102382.80
2019-04-21T01:28:40.057Z,102382.39
2019-04-21T01:29:10.413Z,102380.55
2019-04-21T01:29:41.395Z,102379.20
2019-04-21T01:30:05.673Z,102377.47
2019-04-21T01:30:31.238Z,102377.47
2019-04-21T01:30:57.350Z,102379.78
2019-04-21T01:31:17.138Z,102381.14
2019-04-21T01:31:48.444Z,102378.02
2019-04-21T01:32:19.429Z,102382.90
2019-04-21T01:32:42.696Z,102379.78
2019-04-21T01:33:15.157Z,102384.80
2019-04-21T01:33:42.927Z,102378.50
2019-04-21T01:34:02.906Z,102381.62
2019-04-21T01:34:28.844Z,102379.86
2019-04-21T01:34:53.262Z,102373.95
2019-04-21T01:35:21.156Z,102378.13
2019-04-21T01:35:50.527Z,102378.98
2019-04-21T01:36:08.218Z,102376.66
2019-04-21T01:36:38.627Z,102383.05
2019-04-21T01:37:04.626Z,102378.61
2019-04-21T01:37:40.820Z,102376.37
2019-04-21T01:38:02.968Z,102375.89
2019-04-21T01:38:31.616Z,102371.89
2019-04-21T01:38:59.162Z,102374.06
2019-04-21T01:39:19.610Z,102374.06
2019-04-21T01:39:51.408Z,102371.42
2019-04-21T01:40:18.002Z,102372.37
2019-04-21T01:40:42.618Z,102378.20
2019-04-21T01:41:10.015Z,102373.25
2019-04-21T01:41:31.737Z,102373.73
2019-04-21T01:41:57.271Z,102372.37
2019-04-21T01:42:28.534Z,102372.84
2019-04-21T01:43:17.598Z,102367.89
2019-04-21T01:43:39.482Z,102375.66
2019-04-21T01:44:06.202Z,102371.12
2019-04-21T01:44:38.756Z,102375.19
2019-04-21T01:44:58.268Z,102371.59
2019-04-21T01:45:30.690Z,102375.26
2019-04-21T01:45:49.161Z,102371.19
2019-04-21T01:46:15.352Z,102372.55
2019-04-21T01:46:39.277Z,102371.73
2019-04-21T01:47:06.051Z,102370.38
2019-04-21T01:47:44.695Z,102373.50
2019-04-21T01:48:06.236Z,102371.26
2019-04-21T01:48:36.064Z,102369.02
2019-04-21T01:48:57.045Z,102368.66
2019-04-21T01:49:21.900Z,102371.26
2019-04-21T01:49:49.152Z,102371.26
2019-04-21T01:50:20.080Z,102367.67
2019-04-21T01:50:48.321Z,102374.08
2019-04-21T01:51:17.130Z,102368.66
2019-04-21T01:52:00.950Z,102366.82
2019-04-21T01:52:51.485Z,102373.09
2019-04-21T01:53:19.757Z,102374.55
2019-04-21T01:53:44.806Z,102369.61
2019-04-21T01:54:28.525Z,102371.44
2019-04-21T01:54:55.241Z,102368.25
2019-04-21T01:55:24.943Z,102372.39
2019-04-21T01:55:48.195Z,102371.14
2019-04-21T01:56:35.664Z,102369.30
2019-04-21T01:57:03.392Z,102364.42
2019-04-21T01:57:33.334Z,102363.14
2019-04-21T01:58:03.294Z,102360.43
2019-04-21T01:58:25.473Z,102363.25
2019-04-21T01:58:49.177Z,102364.12
2019-04-21T01:59:18.473Z,102362.84
2019-04-21T01:59:45.710Z,102361.97
2019-04-21T02:00:13.341Z,102361.56
2019-04-21T02:00:51.834Z,102359.83
2019-04-21T02:01:24.626Z,102359.83
2019-04-21T02:01:55.371Z,102355.36
2019-04-21T02:02:18.390Z,102358.48
2019-04-21T02:02:43.373Z,102360.30
2019-04-21T02:03:22.646Z,102355.84
2019-04-21T02:03:59.911Z,102359.02
2019-04-21T02:04:36.624Z,102363.09
2019-04-21T02:05:07.056Z,102355.84
2019-04-21T02:05:26.515Z,102355.84
2019-04-21T02:05:51.111Z,102358.48
2019-04-21T02:06:19.491Z,102360.78
2019-04-21T02:06:39.211Z,102364.85
2019-04-21T02:07:11.536Z,102365.26
2019-04-21T02:07:35.866Z,102357.59
2019-04-21T02:08:01.172Z,102356.64
2019-04-21T02:08:28.795Z,102362.06
2019-04-21T02:08:51.431Z,102355.29
2019-04-21T02:09:22.939Z,102354.48
2019-04-21T02:09:43.214Z,102358.00
2019-04-21T02:10:17.731Z,102354.00
2019-04-21T02:10:47.988Z,102356.72
2019-04-21T02:11:15.651Z,102351.29
2019-04-21T02:11:40.919Z,102358.95
2019-04-21T02:12:05.745Z,102355.29
2019-04-21T02:12:25.291Z,102351.70
2019-04-21T02:12:51.063Z,102353.53
2019-04-21T02:13:12.096Z,102359.42
2019-04-21T02:13:53.342Z,102351.29
2019-04-21T02:14:11.590Z,102349.94
2019-04-21T02:14:41.217Z,102358.14
2019-04-21T02:15:09.530Z,102355.84
2019-04-21T02:15:39.072Z,102350.81
2019-04-21T02:16:01.043Z,102354.41
2019-04-21T02:16:23.418Z,102354.00
2019-04-21T02:16:48.222Z,102354.95
2019-04-21T02:17:16.253Z,102346.81
2019-04-21T02:17:40.758Z,102350.01
2019-04-21T02:18:08.976Z,102349.53
2019-04-21T02:18:35.250Z,102346.81
2019-04-21T02:18:58.115Z,102352.65
2019-04-21T02:19:27.885Z,102347.30
2019-04-21T02:19:51.747Z,102354.08
2019-04-21T02:20:12.240Z,102347.80
2019-04-21T02:20:38.738Z,102354.18
2019-04-21T02:21:00.158Z,102346.45
2019-04-21T02:21:36.924Z,102348.28
2019-04-21T02:22:01.856Z,102347.30
2019-04-21T02:22:55.477Z,102345.94
2019-04-21T02:23:12.883Z,102347.80
2019-04-21T02:23:34.963Z,102345.09
2019-04-21T02:23:54.038Z,102346.45
2019-04-21T02:24:22.345Z,102343.73
2019-04-21T02:24:53.384Z,102347.30
2019-04-21T02:25:13.996Z,102347.40
2019-04-21T02:25:38.455Z,102341.87
2019-04-21T02:26:03.768Z,102342.37
2019-04-21T02:26:36.166Z,102343.73
2019-04-21T02:26:59.472Z,102343.23
2019-04-21T02:27:26.428Z,102345.46
2019-04-21T02:27:54.577Z,102343.80
2019-04-21T02:28:19.340Z,102340.62
2019-04-21T02:28:52.592Z,102340.62
2019-04-21T02:29:29.136Z,102342.37
2019-04-21T02:29:45.223Z,102341.02
2019-04-21T02:30:12.154Z,102337.91
2019-04-21T02:30:52.087Z,102339.73
2019-04-21T02:31:04.969Z,102341.57
2019-04-21T02:31:39.384Z,102338.86
2019-04-21T02:32:07.806Z,102338.86
2019-04-21T02:33:02.371Z,102338.93
2019-04-21T02:33:30.148Z,102334.02
2019-04-21T02:33:50.304Z,102336.22
2019-04-21T02:34:04.499Z,102341.64
2019-04-21T02:35:40.589Z,102338.56
2019-04-21T02:36:00.537Z,102339.44
2019-04-21T02:36:37.347Z,102339.44
2019-04-21T02:37:44.574Z,102334.97
2019-04-21T02:38:11.148Z,102340.39
2019-04-21T02:38:36.294Z,102340.80
2019-04-21T02:39:57.324Z,102333.68
2019-04-21T02:40:48.052Z,102334.63
2019-04-21T02:41:06.060Z,102335.51
2019-04-21T02:41:43.423Z,102332.33
2019-04-21T02:42:03.405Z,102332.80
2019-04-21T02:43:34.302Z,102327.95
2019-04-21T02:43:56.364Z,102328.43
2019-04-21T02:44:17.842Z,102330.67
2019-04-21T02:45:09.438Z,102325.72
2019-04-21T02:46:04.253Z,102334.33
2019-04-21T02:46:48.520Z,102331.14
2019-04-21T02:47:31.294Z,102328.91
2019-04-21T02:48:43.467Z,102328.03
2019-04-21T02:49:19.384Z,102324.44
2019-04-21T02:49:45.161Z,102326.78
2019-04-21T02:50:19.193Z,102324.54
2019-04-21T02:50:28.788Z,102323.08
2019-04-21T02:50:45.181Z,102321.35
2019-04-21T02:51:19.611Z,102320.95
2019-04-21T02:51:58.562Z,102324.14
2019-04-21T02:52:52.364Z,102329.48
2019-04-21T02:53:16.446Z,102326.78
2019-04-21T02:53:47.784Z,102323.66
2019-04-21T02:55:17.879Z,102322.71
2019-04-21T02:56:19.186Z,102323.19
2019-04-21T02:57:08.633Z,102321.90
2019-04-21T02:57:39.598Z,102317.36
2019-04-21T02:59:06.692Z,102315.12
2019-04-21T02:59:33.418Z,102312.08
2019-04-21T03:00:18.654Z,102308.89
2019-04-21T03:00:29.922Z,102308.81
2019-04-21T03:01:12.762Z,102312.00
2019-04-21T03:01:46.142Z,102309.30
2019-04-21T03:03:32.019Z,102300.05
2019-04-21T03:04:26.227Z,102303.23
2019-04-21T03:05:01.874Z,102300.52
2019-04-21T03:06:06.162Z,102297.00
2019-04-21T03:06:54.226Z,102293.52
2019-04-21T03:07:19.250Z,102297.66
2019-04-21T03:07:55.361Z,102297.73
2019-04-21T03:08:50.484Z,102305.02
2019-04-21T03:09:17.803Z,102300.13
2019-04-21T03:09:43.222Z,102300.55
2019-04-21T03:10:36.109Z,102300.61
2019-04-21T03:10:59.300Z,102300.61
2019-04-21T03:11:19.516Z,102298.85
2019-04-21T03:11:56.482Z,102297.42
2019-04-21T03:12:47.995Z,102294.24
2019-04-21T03:13:14.066Z,102300.61
2019-04-21T03:13:42.993Z,102301.49
2019-04-21T03:14:28.298Z,102295.13
2019-04-21T03:15:29.556Z,102298.78
2019-04-21T03:17:03.414Z,102299.19
2019-04-21T03:18:06.524Z,102291.53
2019-04-21T03:18:36.383Z,102292.81
2019-04-21T03:18:56.564Z,102294.17
2019-04-21T03:19:30.028Z,102293.29
2019-04-21T03:19:50.462Z,102290.17
2019-04-21T03:20:17.411Z,102286.66
2019-04-21T03:21:00.117Z,102289.59
2019-04-21T03:21:07.542Z,102289.22
2019-04-21T03:21:28.983Z,102288.23
2019-04-21T03:22:05.301Z,102286.52
2019-04-21T03:22:24.311Z,102282.52
2019-04-21T03:22:57.349Z,102281.56
2019-04-21T03:24:29.470Z,102286.88
2019-04-21T03:26:05.192Z,102278.85
2019-04-21T03:26:29.033Z,102280.69
2019-04-21T03:27:03.631Z,102279.33
2019-04-21T03:27:50.907Z,102280.69
2019-04-21T03:28:13.571Z,102280.75
2019-04-21T03:28:39.736Z,102277.97
2019-04-21T03:29:03.706Z,102283.39
2019-04-21T03:32:05.758Z,102274.45
2019-04-21T03:32:50.647Z,102275.44
2019-04-21T03:34:02.460Z,102279.03
2019-04-21T03:35:03.825Z,102268.66
2019-04-21T03:35:33.786Z,102268.26
2019-04-21T03:36:33.302Z,102267.31
2019-04-21T03:36:47.821Z,102262.84
2019-04-21T03:37:16.758Z,102270.97
2019-04-21T03:38:03.909Z,102270.16
2019-04-21T03:38:18.963Z,102268.26
2019-04-21T03:39:01.275Z,102267.37
2019-04-21T03:39:46.902Z,102267.86
2019-04-21T03:40:14.945Z,102264.73
2019-04-21T03:40:28.626Z,102266.02
2019-04-21T03:40:57.235Z,102269.21
2019-04-21T03:41:26.856Z,102267.45
2019-04-21T03:43:16.689Z,102271.52
2019-04-21T03:43:36.447Z,102269.31
2019-04-21T03:43:59.267Z,102267.95
2019-04-21T03:45:42.426Z,102272.09
2019-04-21T03:46:15.958Z,102271.14
2019-04-21T03:46:41.265Z,102265.80
2019-04-21T03:47:11.128Z,102267.15
2019-04-21T03:47:30.805Z,102268.03
2019-04-21T03:48:27.216Z,102272.56
2019-04-21T03:49:28.930Z,102265.39
2019-04-21T03:49:58.185Z,102268.98
2019-04-21T03:50:11.383Z,102271.80
2019-04-21T03:50:33.678Z,102264.51
2019-04-21T03:51:09.434Z,102267.80
2019-04-21T03:51:35.942Z,102266.84
2019-04-21T03:52:03.237Z,102272.27
2019-04-21T03:52:56.822Z,102267.22
2019-04-21T03:53:18.493Z,102274.50
2019-04-21T03:53:40.340Z,102264.61
2019-04-21T03:54:09.293Z,102263.73
2019-04-21T03:54:42.009Z,102265.49
2019-04-21T03:55:48.717Z,102262.38
2019-04-21T03:56:27.249Z,102264.20
2019-04-21T03:57:21.671Z,102265.16
2019-04-21T03:57:57.404Z,102258.89
2019-04-21T03:58:46.711Z,102262.55
2019-04-21T03:59:16.146Z,102258.56
2019-04-21T03:59:55.968Z,102263.09
2019-04-21T04:01:41.233Z,102260.02
2019-04-21T04:02:22.981Z,102257.30
2019-04-21T04:03:00.021Z,102263.20
2019-04-21T04:03:52.177Z,102262.73
2019-04-21T04:04:22.398Z,102258.16
2019-04-21T04:05:00.529Z,102258.26
2019-04-21T04:05:35.959Z,102261.51
2019-04-21T04:05:55.580Z,102262.49
2019-04-21T04:06:57.008Z,102258.97
2019-04-21T04:07:31.146Z,102257.69
2019-04-21T04:07:59.337Z,102255.48
2019-04-21T04:09:09.506Z,102255.56
2019-04-21T04:10:02.934Z,102255.56
2019-04-21T04:10:28.914Z,102250.21
2019-04-21T04:11:12.756Z,102251.19
2019-04-21T04:11:33.670Z,102250.21
2019-04-21T04:11:47.392Z,102250.68
2019-04-21T04:12:05.259Z,102247.97
2019-04-21T04:12:35.072Z,102244.79
2019-04-21T04:13:07.305Z,102245.77
2019-04-21T04:13:44.212Z,102243.06
2019-04-21T04:14:23.224Z,102247.91
2019-04-21T04:15:26.655Z,102248.38
2019-04-21T04:16:02.079Z,102245.20
2019-04-21T04:16:10.146Z,102245.20
2019-04-21T04:17:27.032Z,102251.90
2019-04-21T04:17:54.322Z,102249.97
2019-04-21T04:18:31.952Z,102250.44
2019-04-21T04:19:18.549Z,102253.08
2019-04-21T04:19:41.932Z,102246.38
2019-04-21T04:20:03.923Z,102250.07
2019-04-21T04:20:43.766Z,102250.44
2019-04-21T04:21:03.454Z,102250.91
2019-04-21T04:21:28.791Z,102253.55
2019-04-21T04:21:59.104Z,102249.09
2019-04-21T04:22:20.201Z,102257.14
2019-04-21T04:22:49.681Z,102251.66
2019-04-21T04:23:10.369Z,102251.80
2019-04-21T04:23:45.067Z,102254.91
2019-04-21T04:24:08.982Z,102251.73
2019-04-21T04:24:46.807Z,102254.37
2019-04-21T04:25:05.187Z,102255.72
2019-04-21T04:25:37.431Z,102256.56
2019-04-21T04:25:53.566Z,102251.66
2019-04-21T04:26:26.259Z,102251.14
2019-04-21T04:27:20.908Z,102248.95
2019-04-21T04:28:43.811Z,102248.44
2019-04-21T04:29:01.321Z,102252.03
2019-04-21T04:29:19.948Z,102246.13
2019-04-21T04:30:10.380Z,102252.43
2019-04-21T04:30:49.755Z,102241.59
2019-04-21T04:32:20.098Z,102243.90
2019-04-21T04:32:28.578Z,102245.25
2019-04-21T04:32:53.781Z,102243.90
2019-04-21T04:33:34.398Z,102242.55
2019-04-21T04:34:00.326Z,102246.61
2019-04-21T04:34:14.646Z,102246.61
2019-04-21T04:35:35.356Z,102239.83
2019-04-21T04:36:37.319Z,102245.66
2019-04-21T04:37:46.974Z,102238.58
2019-04-21T04:38:12.986Z,102243.90
2019-04-21T04:38:46.853Z,102241.30
2019-04-21T04:39:25.795Z,102243.53
2019-04-21T04:41:15.916Z,102241.77
2019-04-21T04:42:00.288Z,102241.77
2019-04-21T04:42:31.457Z,102244.48
2019-04-21T04:42:56.201Z,102236.34
2019-04-21T04:43:50.177Z,102241.06
2019-04-21T04:44:26.498Z,102237.95
2019-04-21T04:44:57.098Z,102244.24
2019-04-21T04:45:15.078Z,102241.13
2019-04-21T04:45:56.482Z,102243.44
2019-04-21T04:46:41.582Z,102239.84
2019-04-21T04:46:55.771Z,102235.89
2019-04-21T04:47:18.410Z,102238.89
2019-04-21T04:47:47.742Z,102238.02
2019-04-21T04:48:39.340Z,102242.48
2019-04-21T04:49:11.464Z,102241.94
2019-04-21T04:49:53.402Z,102244.24
2019-04-21T04:50:19.776Z,102240.18
2019-04-21T04:51:24.785Z,102242.72
2019-04-21T04:52:09.644Z,102240.41
2019-04-21T04:52:19.225Z,102240.01
2019-04-21T04:52:56.858Z,102242.23
2019-04-21T04:53:38.808Z,102238.17
2019-04-21T04:53:48.845Z,102240.31
2019-04-21T04:54:32.003Z,102237.70
2019-04-21T04:54:55.731Z,102237.59
2019-04-21T04:55:06.924Z,102239.94
2019-04-21T04:55:43.382Z,102235.77
2019-04-21T04:56:06.002Z,102233.47
2019-04-21T04:56:30.680Z,102232.11
2019-04-21T04:57:49.081Z,102232.58
2019-04-21T04:57:59.298Z,102233.87
2019-04-21T04:58:18.239Z,102227.56
2019-04-21T04:59:10.642Z,102232.03
2019-04-21T04:59:33.672Z,102230.28
2019-04-21T05:00:25.856Z,102223.58
2019-04-21T05:00:34.889Z,102224.86
2019-04-21T05:00:58.155Z,102228.45
2019-04-21T05:01:36.750Z,102227.97
2019-04-21T05:02:00.366Z,102229.80
2019-04-21T05:03:01.349Z,102223.91
2019-04-21T05:03:47.245Z,102221.56
2019-04-21T05:04:20.522Z,102219.73
2019-04-21T05:04:39.669Z,102221.97
2019-04-21T05:05:09.149Z,102220.21
2019-04-21T05:07:39.968Z,102224.20
2019-04-21T05:08:31.617Z,102223.03
2019-04-21T05:08:52.955Z,102217.61
2019-04-21T05:09:18.645Z,102231.16
2019-04-21T05:09:37.070Z,102229.39
2019-04-21T05:09:52.496Z,102226.28
2019-04-21T05:10:30.535Z,102224.45
2019-04-21T05:11:00.570Z,102226.69
2019-04-21T05:11:24.068Z,102219.03
2019-04-21T05:12:15.844Z,102224.05
2019-04-21T05:12:32.502Z,102216.42
2019-04-21T05:13:02.257Z,102218.16
2019-04-21T05:13:27.979Z,102224.16
2019-04-21T05:13:55.856Z,102224.16
2019-04-21T05:14:13.375Z,102221.62
2019-04-21T05:14:48.222Z,102218.10
2019-04-21T05:15:11.517Z,102220.51
2019-04-21T05:15:34.185Z,102222.52
2019-04-21T05:16:13.758Z,102221.30
2019-04-21T05:16:55.160Z,102220.83
2019-04-21T05:17:30.960Z,102219.25
2019-04-21T05:18:13.659Z,102221.59
2019-04-21T05:18:45.179Z,102223.98
2019-04-21T05:19:42.298Z,102222.60
2019-04-21T05:20:08.648Z,102221.08
2019-04-21T05:20:41.782Z,102219.48
2019-04-21T05:21:04.343Z,102223.72
2019-04-21T05:21:30.261Z,102228.48
2019-04-21T05:21:45.422Z,102222.42
2019-04-21T05:22:17.305Z,102222.59
2019-04-21T05:22:35.300Z,102223.33
2019-04-21T05:23:03.397Z,102221.73
2019-04-21T05:23:24.663Z,102217.80
2019-04-21T05:23:51.068Z,102220.67
2019-04-21T05:24:17.852Z,102219.55
2019-04-21T05:24:37.941Z,102222.00
2019-04-21T05:25:05.213Z,102217.23
2019-04-21T05:25:35.259Z,102220.50
2019-04-21T05:25:53.375Z,102214.84
2019-04-21T05:26:23.105Z,102218.56
2019-04-21T05:26:53.593Z,102220.07
2019-04-21T05:27:38.325Z,102220.70
2019-04-21T05:28:01.054Z,102219.89
2019-04-21T05:28:31.725Z,102215.64
2019-04-21T05:28:50.830Z,102220.23
2019-04-21T05:29:19.394Z,102217.91
2019-04-21T05:30:01.892Z,102217.91
2019-04-21T05:30:30.812Z,102226.12
2019-04-21T05:30:58.379Z,102218.64
2019-04-21T05:31:20.871Z,102221.40
2019-04-21T05:31:51.039Z,102221.55
2019-04-21T05:32:17.201Z,102220.73
2019-04-21T05:33:00.078Z,102221.30
2019-04-21T05:33:29.254Z,102220.95
2019-04-21T05:34:04.730Z,102221.11
2019-04-21T05:34:43.042Z,102220.33
2019-04-21T05:35:01.930Z,102219.09
2019-04-21T05:35:47.392Z,102218.78
2019-04-21T05:36:30.861Z,102223.40
2019-04-21T05:36:57.837Z,102219.46
2019-04-21T05:37:25.622Z,102218.73
2019-04-21T05:37:50.375Z,102222.41
2019-04-21T05:38:21.435Z,102219.92
2019-04-21T05:38:53.476Z,102217.69
2019-04-21T05:39:18.530Z,102221.33
2019-04-21T05:39:52.295Z,102214.64
2019-04-21T05:40:18.323Z,102214.26
2019-04-21T05:40:44.123Z,102219.72
2019-04-21T05:41:10.060Z,102215.26
2019-04-21T05:41:42.882Z,102219.87
2019-04-21T05:42:08.887Z,102212.70
2019-04-21T05:42:44.138Z,102218.11
2019-04-21T05:43:08.192Z,102219.05
2019-04-21T05:43:40.421Z,102222.73
2019-04-21T05:44:06.294Z,102216.91
2019-04-21T05:44:41.936Z,102216.50
2019-04-21T05:45:07.998Z,102216.09
2019-04-21T05:45:34.809Z,102218.41
2019-04-21T05:45:59.682Z,102215.72
2019-04-21T05:46:21.353Z,102216.24
2019-04-21T05:46:49.653Z,102214.42
2019-04-21T05:47:22.073Z,102212.19
2019-04-21T05:47:46.317Z,102214.83
2019-04-21T05:48:17.819Z,102216.66
2019-04-21T05:48:39.758Z,102211.77
2019-04-21T05:49:10.764Z,102212.75
2019-04-21T05:49:41.485Z,102212.34
2019-04-21T05:50:06.501Z,102214.16
2019-04-21T05:50:35.040Z,102215.56
2019-04-21T05:51:02.057Z,102210.16
2019-04-21T05:51:28.727Z,102215.19
2019-04-21T05:51:55.751Z,102213.42
2019-04-21T05:52:23.216Z,102220.65
2019-04-21T05:52:46.203Z,102211.20
2019-04-21T05:53:26.837Z,102216.13
2019-04-21T05:53:48.258Z,102212.08
2019-04-21T05:54:24.634Z,102212.08
2019-04-21T05:54:46.518Z,102212.08
2019-04-21T05:55:14.538Z,102214.37
2019-04-21T05:55:35.948Z,102214.37
2019-04-21T05:56:05.010Z,102213.89
2019-04-21T05:56:31.855Z,102211.25
2019-04-21T05:56:48.877Z,102211.66
2019-04-21T05:57:17.213Z,102204.13
2019-04-21T05:57:48.162Z,102209.11
2019-04-21T05:58:08.593Z,102211.81
2019-04-21T05:58:40.956Z,102206.84
2019-04-21T05:59:02.111Z,102207.79
2019-04-21T05:59:32.342Z,102217.24
2019-04-21T05:59:53.713Z,102215.98
2019-04-21T06:00:23.073Z,102215.10
2019-04-21T06:01:15.146Z,102207.94
2019-04-21T06:01:31.421Z,102206.59
2019-04-21T06:01:50.292Z,102204.35
2019-04-21T06:02:28.881Z,102212.92
2019-04-21T06:02:56.036Z,102212.45
2019-04-21T06:03:44.504Z,102210.78